Terminal Aerodrome Forecast
Issued by NWS

Home | Current Version | Previous Version | Text Only | Print | Product List | Glossary On
Versions: 1 2 3 4 5 6 7 8 9 10 11 12 13 14 15 16 17 18
000
FTUS43 KMQT 060522
TAFCMX
TAF
KCMX 060522Z 0606/0706 13007KT P6SM VCSH OVC060
     FM060800 13009KT P6SM OVC040
     FM061500 15010KT P6SM OVC015
     FM061800 16011G21KT 6SM -SN OVC015
     FM062100 20013KT 3SM -SN OVC010
     FM062200 21013KT 5SM -SN OVC020
     FM070000 23012G22KT P6SM BKN030=

USA.gov is the U.S. government's official web portal to all federal, state and local government web resources and services.